Time;durP1;ratioP1;P1;durP2;ratioP2;P2;SDS_P1;SDS_P2;PMS_P1;PMS_P2;Temp;Humidity;BMP_temperature;BMP_pressure;BME280_temperature;BME280_humidity;BME280_pressure;Samples;Min_cycle;Max_cycle;Signal;HPM_P1;HPM_P2
2022/10/23 00:00:36;;;;;;;8.40;4.22;;;;;;;11.55;91.66;101297.34;5069895;28;20369;-78
2022/10/23 00:03:02;;;;;;;6.55;4.13;;;;;;;11.56;91.45;101304.28;5068422;28;20036;-78
2022/10/23 00:05:28;;;;;;;6.38;4.03;;;;;;;11.55;91.35;101297.34;5072836;28;20105;-79
2022/10/23 00:07:56;;;;;;;6.70;4.32;;;;;;;11.54;91.46;101295.63;5071544;28;20108;-78
2022/10/23 00:10:24;;;;;;;8.05;4.45;;;;;;;11.54;91.78;101295.63;5071659;28;20101;-78
2022/10/23 00:12:50;;;;;;;11.85;4.80;;;;;;;11.53;91.74;101296.53;5071398;28;20044;-78
2022/10/23 00:15:18;;;;;;;5.90;4.10;;;;;;;11.54;91.95;101295.63;5071140;28;20080;-78
2022/10/23 00:17:43;;;;;;;9.00;4.53;;;;;;;11.53;91.57;101306.94;5068393;28;20033;-78
2022/10/23 00:20:10;;;;;;;10.07;4.20;;;;;;;11.53;91.64;101296.53;5071559;28;20468;-78
2022/10/23 00:22:36;;;;;;;7.97;4.15;;;;;;;11.53;91.86;101296.53;5073489;28;20040;-78
2022/10/23 00:25:04;;;;;;;7.60;4.40;;;;;;;11.54;91.62;101298.25;5071269;28;20037;-78
2022/10/23 00:27:29;;;;;;;9.32;4.45;;;;;;;11.54;91.61;101293.03;5072976;28;20043;-78
2022/10/23 00:29:54;;;;;;;9.88;4.18;;;;;;;11.52;91.97;101293.06;5071670;28;20471;-78
2022/10/23 00:32:19;;;;;;;9.25;3.95;;;;;;;11.54;91.69;101296.47;5072155;28;20459;-78
2022/10/23 00:34:45;;;;;;;6.82;4.03;;;;;;;11.55;91.94;101294.75;5071504;28;20090;-78
2022/10/23 00:37:10;;;;;;;7.85;4.20;;;;;;;11.56;92.03;101295.59;5074076;28;20125;-78
2022/10/23 00:39:35;;;;;;;9.68;3.92;;;;;;;11.56;91.81;101299.06;5072863;28;20039;-78
2022/10/23 00:42:00;;;;;;;9.18;4.30;;;;;;;11.58;91.80;101309.44;5071825;28;20387;-78
2022/10/23 00:44:28;;;;;;;10.40;4.18;;;;;;;11.55;91.69;101292.13;5071064;28;20078;-78
2022/10/23 00:46:54;;;;;;;9.23;4.13;;;;;;;11.54;91.74;101290.44;5074032;28;20487;-78
2022/10/23 00:49:21;;;;;;;8.52;3.83;;;;;;;11.52;91.71;101287.00;5074025;28;20032;-78
2022/10/23 00:51:51;;;;;;;6.32;3.92;;;;;;;11.50;91.31;101291.38;5072790;28;20028;-78
2022/10/23 00:54:20;;;;;;;7.38;4.00;;;;;;;11.49;91.53;101292.25;5071386;28;20482;-78
2022/10/23 00:56:46;;;;;;;11.20;4.05;;;;;;;11.49;91.64;101287.06;5073862;28;20122;-78
2022/10/23 00:59:11;;;;;;;9.30;4.20;;;;;;;11.48;91.58;101285.34;5072492;28;20125;-78
2022/10/23 01:01:37;;;;;;;6.43;3.92;;;;;;;11.47;91.76;101291.44;5072236;28;20078;-78
2022/10/23 01:04:04;;;;;;;6.30;4.10;;;;;;;11.46;91.87;101287.13;5071984;28;20040;-78
2022/10/23 01:06:55;;;;;;;7.20;3.97;;;;;;;11.46;91.59;101294.94;5073678;28;20036;-78
2022/10/23 01:09:33;;;;;;;8.10;3.80;;;;;;;11.45;91.61;101288.00;5072078;28;20025;-78
2022/10/23 01:12:13;;;;;;;7.68;3.92;;;;;;;11.45;91.81;101282.78;5071890;28;20028;-78
2022/10/23 01:14:47;;;;;;;6.53;3.65;;;;;;;11.44;91.68;101279.34;5071530;28;20098;-78
2022/10/23 01:17:29;;;;;;;7.03;3.67;;;;;;;11.43;91.66;101271.59;5071202;28;20028;-78
2022/10/23 01:20:13;;;;;;;7.90;3.60;;;;;;;11.38;91.25;101280.34;5069205;28;20029;-78
2022/10/23 01:22:56;;;;;;;5.80;3.80;;;;;;;11.36;91.05;101270.84;5071154;28;20021;-78
2022/10/23 01:25:30;;;;;;;7.03;3.63;;;;;;;11.33;91.27;101274.38;5066881;28;20025;-78
2022/10/23 01:28:01;;;;;;;5.78;3.40;;;;;;;11.31;91.14;101270.09;5081834;28;20135;-78
2022/10/23 01:30:28;;;;;;;7.87;3.70;;;;;;;11.31;91.39;101268.34;5069774;28;20694;-78
2022/10/23 01:33:16;;;;;;;7.70;3.95;;;;;;;11.29;91.36;101267.50;5072333;28;20024;-78
2022/10/23 01:35:49;;;;;;;7.63;3.70;;;;;;;11.28;91.56;101268.41;5067690;28;20043;-78
2022/10/23 01:38:21;;;;;;;6.20;3.83;;;;;;;11.24;91.33;101267.63;5068742;28;20020;-78
2022/10/23 01:40:53;;;;;;;5.22;3.25;;;;;;;11.23;91.30;101259.84;5062995;28;20021;-78
2022/10/23 01:43:24;;;;;;;9.35;3.80;;;;;;;11.20;91.50;101265.13;5070451;28;20066;-78
2022/10/23 01:45:54;;;;;;;7.50;3.97;;;;;;;11.20;91.76;101254.69;5070262;28;20032;-78
2022/10/23 01:48:28;;;;;;;6.50;3.90;;;;;;;11.18;91.71;101254.75;5065375;28;20032;-78
2022/10/23 01:50:57;;;;;;;7.85;3.95;;;;;;;11.16;92.08;101247.84;5067849;28;20158;-78
2022/10/23 01:53:26;;;;;;;7.38;3.97;;;;;;;11.17;92.17;101249.56;5072732;28;20031;-78
2022/10/23 01:55:54;;;;;;;8.07;4.25;;;;;;;11.18;92.43;101243.47;5071144;28;20028;-78
2022/10/23 01:58:20;;;;;;;6.88;4.05;;;;;;;11.19;92.60;101237.38;5069253;28;20103;-78
2022/10/23 02:00:47;;;;;;;7.13;4.32;;;;;;;11.19;92.59;101233.00;5069011;28;20090;-78
2022/10/23 02:03:16;;;;;;;8.15;4.55;;;;;;;11.20;92.68;101239.06;5067742;28;20063;-78
2022/10/23 02:05:42;;;;;;;7.60;4.28;;;;;;;11.20;92.56;101229.50;5066761;28;20120;-78
2022/10/23 02:08:07;;;;;;;7.70;4.50;;;;;;;11.21;92.75;101239.03;5063010;28;20075;-78
2022/10/23 02:10:59;;;;;;;7.72;4.35;;;;;;;11.20;92.81;101232.09;5071197;28;20037;-78
2022/10/23 02:13:43;;;;;;;7.03;4.60;;;;;;;11.20;92.64;101234.72;5065676;28;20505;-78
2022/10/23 02:16:37;;;;;;;9.00;4.60;;;;;;;11.20;92.78;101224.28;5070197;28;20024;-78
2022/10/23 02:19:16;;;;;;;10.35;5.03;;;;;;;11.22;93.24;101237.28;5068755;28;20162;-78
2022/10/23 02:21:53;;;;;;;12.00;4.90;;;;;;;11.22;93.15;101229.47;5071425;28;20024;-78
2022/10/23 02:24:42;;;;;;;6.78;4.45;;;;;;;11.22;93.07;101234.69;5069619;28;20067;-78
2022/10/23 02:27:20;;;;;;;8.30;4.82;;;;;;;11.22;93.43;101232.09;5066687;28;20025;-78
2022/10/23 02:29:50;;;;;;;7.55;4.38;;;;;;;11.23;93.35;101226.84;5076752;28;20566;-78
2022/10/23 02:32:18;;;;;;;6.53;4.47;;;;;;;11.23;93.46;101233.81;5071875;28;20071;-78
2022/10/23 02:34:43;;;;;;;7.70;4.43;;;;;;;11.21;93.21;101230.38;5069674;28;20035;-78
2022/10/23 02:37:08;;;;;;;7.55;4.60;;;;;;;11.19;93.37;101230.38;5069272;28;20024;-78
2022/10/23 02:39:34;;;;;;;8.57;4.60;;;;;;;11.21;93.28;101226.00;5069192;28;20157;-78
2022/10/23 02:42:05;;;;;;;7.20;4.43;;;;;;;11.21;93.18;101215.59;5072174;28;20074;-78
2022/10/23 02:44:58;;;;;;;12.45;4.30;;;;;;;11.20;93.33;101207.81;5068162;28;20028;-78
2022/10/23 02:47:32;;;;;;;6.20;4.07;;;;;;;11.20;93.40;101202.63;5079676;28;20040;-78
2022/10/23 02:50:07;;;;;;;7.82;3.95;;;;;;;11.21;93.32;101199.97;5072322;28;20035;-78
2022/10/23 02:52:57;;;;;;;9.13;4.32;;;;;;;11.21;93.28;101189.53;5070595;28;20025;-78
2022/10/23 02:55:58;;;;;;;6.50;3.88;;;;;;;11.23;93.53;101186.94;5066919;28;20551;-78
2022/10/23 02:58:28;;;;;;;8.43;4.00;;;;;;;11.22;93.57;101169.59;5054013;28;20105;-78
2022/10/23 03:01:04;;;;;;;8.73;3.80;;;;;;;11.23;93.67;101160.88;5071319;28;20082;-78
2022/10/23 03:03:34;;;;;;;10.55;4.55;;;;;;;11.24;93.85;101152.19;5078423;28;20036;-78
2022/10/23 03:06:00;;;;;;;9.18;4.07;;;;;;;11.23;93.81;101150.47;5081339;28;20032;-78
2022/10/23 03:08:25;;;;;;;13.43;3.97;;;;;;;11.23;93.95;101142.66;5071604;28;20089;-78
2022/10/23 03:10:51;;;;;;;6.38;3.67;;;;;;;11.24;93.86;101144.38;5071594;28;20053;-78
2022/10/23 03:13:16;;;;;;;7.60;3.70;;;;;;;11.25;93.97;101143.47;5064025;28;20123;-78
2022/10/23 03:15:42;;;;;;;7.50;3.92;;;;;;;11.26;94.06;101137.38;5062207;28;20028;-78
2022/10/23 03:18:07;;;;;;;6.88;3.85;;;;;;;11.26;94.18;101139.97;5064401;28;21006;-78
2022/10/23 03:20:33;;;;;;;7.07;3.83;;;;;;;11.28;94.23;101135.56;5071513;28;20082;-78
2022/10/23 03:22:58;;;;;;;5.90;3.33;;;;;;;11.28;94.38;101138.16;5074049;28;20028;-77
2022/10/23 03:25:23;;;;;;;7.35;3.50;;;;;;;11.29;94.43;101139.88;5073038;28;20036;-78
2022/10/23 03:27:49;;;;;;;7.72;3.50;;;;;;;11.31;94.38;101127.69;5073148;28;20028;-79
2022/10/23 03:30:14;;;;;;;9.02;3.50;;;;;;;11.32;94.21;101125.94;5072510;28;20460;-78
2022/10/23 03:32:39;;;;;;;5.78;3.28;;;;;;;11.32;94.58;101124.19;5073544;28;20027;-78
2022/10/23 03:35:05;;;;;;;7.65;3.50;;;;;;;11.32;94.46;101126.78;5072345;28;20032;-78
2022/10/23 03:37:30;;;;;;;10.40;3.60;;;;;;;11.33;94.25;101115.47;5072734;28;20028;-78
2022/10/23 03:39:56;;;;;;;6.85;3.60;;;;;;;11.35;94.32;101118.06;5071369;28;20036;-78
2022/10/23 03:42:21;;;;;;;6.70;3.30;;;;;;;11.34;94.46;101109.38;5072807;28;20081;-78
2022/10/23 03:44:46;;;;;;;8.50;3.50;;;;;;;11.35;94.52;101103.28;5071823;28;20073;-78
2022/10/23 03:47:11;;;;;;;8.50;3.53;;;;;;;11.35;94.28;101098.06;5073281;28;20036;-78
2022/10/23 03:49:38;;;;;;;7.07;3.45;;;;;;;11.37;94.54;101096.28;5071555;28;20029;-78
2022/10/23 03:52:04;;;;;;;8.23;3.45;;;;;;;11.38;94.33;101094.53;5073011;28;20029;-78
2022/10/23 03:54:29;;;;;;;6.63;3.30;;;;;;;11.39;94.47;101101.44;5071611;28;20047;-78
2022/10/23 03:56:55;;;;;;;9.68;3.53;;;;;;;11.41;94.42;101101.41;5069288;28;20468;-78
2022/10/23 03:59:20;;;;;;;8.77;3.63;;;;;;;11.41;94.44;101096.22;5068861;28;20086;-78
2022/10/23 04:01:45;;;;;;;7.18;3.63;;;;;;;11.42;94.34;101101.38;5067722;28;20032;-78
2022/10/23 04:04:12;;;;;;;6.97;3.30;;;;;;;11.42;94.58;101103.13;5072980;28;20056;-78
2022/10/23 04:06:37;;;;;;;7.75;3.65;;;;;;;11.43;94.68;101104.84;5071240;28;20046;-78
2022/10/23 04:09:03;;;;;;;7.50;3.75;;;;;;;11.44;94.68;101093.53;5069960;28;20464;-78
2022/10/23 04:11:29;;;;;;;7.97;3.70;;;;;;;11.45;94.61;101087.41;5072025;28;20044;-78
2022/10/23 04:13:55;;;;;;;7.03;3.50;;;;;;;11.45;94.71;101076.97;5071664;28;20042;-78
2022/10/23 04:16:20;;;;;;;9.00;3.80;;;;;;;11.46;94.86;101071.75;5072054;28;20095;-79
2022/10/23 04:18:46;;;;;;;10.95;3.55;;;;;;;11.47;94.66;101068.25;5070858;28;20033;-78
2022/10/23 04:21:11;;;;;;;5.95;3.30;;;;;;;11.48;94.73;101059.53;5072068;28;20024;-78
2022/10/23 04:23:36;;;;;;;7.90;3.70;;;;;;;11.50;94.62;101062.09;5070169;28;20036;-78
2022/10/23 04:26:02;;;;;;;7.35;3.40;;;;;;;11.50;94.53;101051.69;5073336;28;20028;-78
2022/10/23 04:28:28;;;;;;;9.07;3.70;;;;;;;11.50;94.69;101060.38;5071754;28;20468;-78
2022/10/23 04:30:53;;;;;;;7.45;3.15;;;;;;;11.51;94.64;101063.81;5070706;28;20036;-78
2022/10/23 04:33:19;;;;;;;8.15;3.60;;;;;;;11.53;94.76;101064.63;5073419;28;20082;-78
2022/10/23 04:35:44;;;;;;;7.63;3.20;;;;;;;11.55;94.93;101073.25;5070975;28;20035;-78
2022/10/23 04:38:09;;;;;;;8.73;3.80;;;;;;;11.56;94.93;101072.38;5071346;28;20047;-78
2022/10/23 04:40:35;;;;;;;6.22;3.08;;;;;;;11.59;95.03;101064.47;5071003;28;20067;-78
2022/10/23 04:43:00;;;;;;;5.72;3.40;;;;;;;11.61;95.01;101060.09;5071840;28;20111;-78
2022/10/23 04:45:25;;;;;;;6.93;3.30;;;;;;;11.62;95.12;101058.31;5071898;28;20420;-78
2022/10/23 04:47:52;;;;;;;8.00;3.33;;;;;;;11.63;95.31;101063.47;5070212;28;20442;-78
2022/10/23 04:50:18;;;;;;;6.97;3.33;;;;;;;11.64;95.29;101057.38;5069900;28;20040;-78
2022/10/23 04:52:43;;;;;;;6.55;3.63;;;;;;;11.66;95.23;101058.19;5073676;28;20111;-78
2022/10/23 04:55:09;;;;;;;7.78;3.58;;;;;;;11.68;95.06;101055.56;5074418;28;20431;-78
2022/10/23 04:57:34;;;;;;;8.75;3.40;;;;;;;11.69;95.46;101059.88;5072009;28;20035;-78
2022/10/23 05:00:00;;;;;;;8.38;3.63;;;;;;;11.71;95.49;101063.28;5069837;28;20028;-78
2022/10/23 05:02:26;;;;;;;7.03;3.25;;;;;;;11.72;95.52;101048.50;5070674;28;20020;-78
2022/10/23 05:04:52;;;;;;;7.85;3.60;;;;;;;11.74;95.47;101044.09;5069909;28;20380;-78
2022/10/23 05:07:17;;;;;;;5.38;3.40;;;;;;;11.74;95.69;101041.50;5068508;28;20020;-78
2022/10/23 05:09:42;;;;;;;6.80;3.47;;;;;;;11.73;95.42;101045.84;5072642;28;20475;-78
2022/10/23 05:12:07;;;;;;;8.30;3.30;;;;;;;11.73;95.68;101048.44;5074013;28;20474;-78
2022/10/23 05:14:33;;;;;;;6.93;3.45;;;;;;;11.75;95.56;101043.22;5073944;28;20028;-78
2022/10/23 05:17:07;;;;;;;7.38;3.58;;;;;;;11.74;95.67;101041.50;5076188;28;20028;-78
2022/10/23 05:19:40;;;;;;;7.03;3.47;;;;;;;11.74;95.63;101041.50;5081599;28;20048;-78
2022/10/23 05:22:07;;;;;;;8.30;3.53;;;;;;;11.74;95.46;101041.50;5072667;28;20060;-78
2022/10/23 05:24:32;;;;;;;6.35;3.47;;;;;;;11.74;95.66;101038.91;5069681;28;20040;-77
2022/10/23 05:26:58;;;;;;;6.22;3.40;;;;;;;11.74;95.70;101028.47;5067381;28;20043;-78
2022/10/23 05:29:23;;;;;;;5.50;3.45;;;;;;;11.74;95.81;101031.06;5065699;28;20471;-78
2022/10/23 05:31:51;;;;;;;5.63;3.38;;;;;;;11.75;95.84;101032.78;5071674;28;20051;-77
2022/10/23 05:34:21;;;;;;;6.47;3.30;;;;;;;11.75;96.03;101032.78;5066979;28;20031;-77
2022/10/23 05:36:47;;;;;;;6.78;3.50;;;;;;;11.76;96.07;101029.28;5067582;28;20619;-77
2022/10/23 05:39:12;;;;;;;5.95;3.70;;;;;;;11.76;96.19;101024.91;5070148;28;20219;-77
2022/10/23 05:41:37;;;;;;;6.93;3.75;;;;;;;11.77;96.04;101017.97;5081870;28;20032;-77
2022/10/23 05:44:03;;;;;;;7.53;3.55;;;;;;;11.76;96.15;101014.47;5072164;28;20056;-77
2022/10/23 05:46:28;;;;;;;7.32;3.67;;;;;;;11.78;96.23;101017.91;5074185;28;20034;-78
2022/10/23 05:48:53;;;;;;;5.63;3.72;;;;;;;11.78;96.26;101019.69;5068187;28;20032;-78
2022/10/23 05:51:21;;;;;;;6.65;3.83;;;;;;;11.80;96.25;101017.84;5067487;28;20033;-78
2022/10/23 05:53:51;;;;;;;10.00;4.05;;;;;;;11.79;96.29;101018.75;5075661;28;20039;-78
2022/10/23 05:56:17;;;;;;;6.97;3.63;;;;;;;11.79;96.28;101019.63;5076969;28;20528;-77
2022/10/23 05:58:43;;;;;;;10.70;3.72;;;;;;;11.79;96.61;101006.59;5080745;28;20035;-77
2022/10/23 06:01:11;;;;;;;7.57;3.80;;;;;;;11.80;96.25;101007.44;5080436;28;20111;-77
2022/10/23 06:03:37;;;;;;;8.05;4.00;;;;;;;11.79;96.31;101013.53;5079995;28;20089;-77
2022/10/23 06:06:03;;;;;;;7.13;3.88;;;;;;;11.80;96.24;101007.44;5081152;28;20581;-77
2022/10/23 06:08:29;;;;;;;6.70;3.97;;;;;;;11.80;96.45;100999.59;5079629;28;20216;-77
2022/10/23 06:10:54;;;;;;;7.85;3.85;;;;;;;11.79;96.19;100992.69;5084685;28;20052;-78
2022/10/23 06:13:19;;;;;;;8.80;3.65;;;;;;;11.80;96.25;100999.59;5082224;28;20036;-78
2022/10/23 06:15:45;;;;;;;8.35;3.83;;;;;;;11.80;96.48;100994.38;5083367;28;20032;-77
2022/10/23 06:18:10;;;;;;;11.00;4.03;;;;;;;11.81;96.41;100991.75;5080930;28;20039;-78
2022/10/23 06:20:37;;;;;;;6.32;3.65;;;;;;;11.83;96.50;100991.69;5081441;28;20060;-78
2022/10/23 06:23:04;;;;;;;8.38;4.00;;;;;;;11.83;96.33;100978.66;5082342;28;20059;-78
2022/10/23 06:25:29;;;;;;;5.43;3.45;;;;;;;11.84;96.55;100985.59;5074269;28;20063;-77
2022/10/23 06:27:57;;;;;;;8.15;3.88;;;;;;;11.84;96.33;100983.84;5079572;28;20063;-78
2022/10/23 06:30:23;;;;;;;5.90;3.70;;;;;;;11.85;96.16;100984.69;5078151;28;20464;-78
2022/10/23 06:32:48;;;;;;;9.45;4.10;;;;;;;11.86;96.50;100986.41;5074946;28;20119;-78
2022/10/23 06:35:13;;;;;;;6.68;3.65;;;;;;;11.87;96.57;100982.06;5075541;28;20034;-78
2022/10/23 06:37:39;;;;;;;7.03;3.60;;;;;;;11.89;96.67;100977.63;5075678;28;20036;-78
2022/10/23 06:40:05;;;;;;;9.95;3.97;;;;;;;11.91;96.62;100981.94;5083494;28;20032;-78
2022/10/23 06:42:30;;;;;;;7.32;3.83;;;;;;;11.93;96.68;100987.09;5080389;28;20051;-78
2022/10/23 06:44:56;;;;;;;6.28;3.80;;;;;;;11.94;96.47;100981.84;5079542;28;20067;-78
2022/10/23 06:47:21;;;;;;;7.40;3.92;;;;;;;11.96;96.46;100972.19;5080796;28;20064;-78
2022/10/23 06:49:47;;;;;;;6.78;3.75;;;;;;;11.96;96.46;100966.97;5083796;28;20075;-78
2022/10/23 06:52:12;;;;;;;9.23;4.35;;;;;;;11.98;96.22;100961.75;5083716;28;20031;-78
2022/10/23 06:54:37;;;;;;;7.35;3.55;;;;;;;11.98;96.57;100960.00;5083392;28;20035;-78
2022/10/23 06:57:03;;;;;;;6.97;3.63;;;;;;;12.01;96.51;100966.03;5086494;28;20060;-78
2022/10/23 06:59:29;;;;;;;8.82;3.67;;;;;;;12.02;96.47;100955.56;5080688;28;20452;-78
2022/10/23 07:01:54;;;;;;;8.80;3.75;;;;;;;12.04;96.31;100950.28;5084046;28;20069;-78
2022/10/23 07:04:19;;;;;;;6.78;3.60;;;;;;;12.06;96.42;100953.72;5071729;28;20120;-78
2022/10/23 07:06:44;;;;;;;8.52;3.65;;;;;;;12.07;96.56;100945.00;5082288;28;20128;-78
2022/10/23 07:09:10;;;;;;;7.18;3.92;;;;;;;12.10;96.33;100960.56;5082398;28;20028;-77
2022/10/23 07:11:35;;;;;;;5.47;3.58;;;;;;;12.12;96.65;100963.97;5080673;28;20104;-77
2022/10/23 07:14:01;;;;;;;6.95;3.90;;;;;;;12.15;96.47;100958.63;5081269;28;20501;-78
2022/10/23 07:16:26;;;;;;;6.30;3.55;;;;;;;12.16;96.41;100960.34;5084225;28;20667;-78
2022/10/23 07:18:58;;;;;;;8.45;3.60;;;;;;;12.19;96.38;100955.03;5081377;28;20356;-78
2022/10/23 07:21:25;;;;;;;6.97;3.70;;;;;;;12.22;96.60;100948.88;5082795;28;20083;-78
2022/10/23 07:23:50;;;;;;;6.97;3.70;;;;;;;12.24;96.51;100949.69;5075678;28;20365;-78
2022/10/23 07:26:15;;;;;;;6.55;3.28;;;;;;;12.26;96.36;100956.56;5085742;28;20047;-78
2022/10/23 07:28:43;;;;;;;5.57;3.25;;;;;;;12.29;96.67;100942.56;5087969;28;20028;-78
2022/10/23 07:31:08;;;;;;;6.82;3.33;;;;;;;12.32;96.36;100941.59;5082135;28;20075;-78
2022/10/23 07:33:34;;;;;;;4.90;3.17;;;;;;;12.33;96.24;100938.09;5087531;28;20107;-78
2022/10/23 07:36:00;;;;;;;6.88;3.78;;;;;;;12.36;96.05;100940.63;5086340;28;20071;-78
2022/10/23 07:38:26;;;;;;;7.13;3.55;;;;;;;12.37;96.24;100942.31;5085662;28;20057;-77
2022/10/23 07:40:52;;;;;;;6.63;3.38;;;;;;;12.40;96.39;100937.03;5081676;28;20031;-77
2022/10/23 07:43:19;;;;;;;5.82;3.40;;;;;;;12.43;96.00;100937.75;5082804;28;20601;-78
2022/10/23 07:45:48;;;;;;;7.53;3.50;;;;;;;12.44;96.13;100928.19;5085064;28;20033;-78
2022/10/23 07:48:14;;;;;;;5.57;3.63;;;;;;;12.47;96.00;100930.69;5086344;28;20133;-78
2022/10/23 07:50:39;;;;;;;5.18;3.30;;;;;;;12.51;96.21;100934.06;5081834;28;20035;-78
2022/10/23 07:53:05;;;;;;;7.70;3.10;;;;;;;12.53;95.99;100930.50;5084004;28;20383;-78
2022/10/23 07:55:30;;;;;;;6.15;3.28;;;;;;;12.56;96.17;100927.78;5083972;28;20073;-78
2022/10/23 07:57:55;;;;;;;6.45;3.63;;;;;;;12.61;96.05;100925.03;5081141;28;20040;-78
2022/10/23 08:00:21;;;;;;;5.75;3.05;;;;;;;12.64;95.94;100918.88;5083900;28;20400;-78
2022/10/23 08:02:46;;;;;;;5.65;3.58;;;;;;;12.66;96.07;100912.69;5081604;28;20043;-77
2022/10/23 08:05:12;;;;;;;5.63;3.42;;;;;;;12.70;95.98;100922.13;5073575;28;20023;-77
2022/10/23 08:07:37;;;;;;;5.97;3.40;;;;;;;12.74;95.83;100920.25;5077743;28;20037;-78
2022/10/23 08:10:03;;;;;;;7.32;3.65;;;;;;;12.77;95.62;100920.16;5084872;28;20048;-78
2022/10/23 08:12:28;;;;;;;6.50;3.33;;;;;;;12.82;95.75;100912.16;5080003;28;20471;-77
2022/10/23 08:14:54;;;;;;;6.97;3.38;;;;;;;12.86;95.47;100914.59;5083119;28;20116;-78
2022/10/23 08:17:19;;;;;;;8.85;3.70;;;;;;;12.89;95.57;100909.28;5081673;28;20039;-78
2022/10/23 08:19:47;;;;;;;6.95;3.50;;;;;;;12.95;95.50;100910.84;5087659;28;20056;-78
2022/10/23 08:22:12;;;;;;;7.10;3.30;;;;;;;12.99;95.06;100907.22;5081472;28;20052;-77
2022/10/23 08:24:38;;;;;;;11.02;3.63;;;;;;;13.05;95.06;100900.91;5088264;28;20129;-77
2022/10/23 08:27:03;;;;;;;6.75;3.45;;;;;;;13.09;95.10;100899.91;5084370;28;20035;-77
2022/10/23 08:29:28;;;;;;;8.70;3.53;;;;;;;13.13;95.47;100904.13;5088073;28;20027;-78
2022/10/23 08:31:55;;;;;;;5.78;3.70;;;;;;;13.17;94.90;100900.47;5083565;28;20467;-78
2022/10/23 08:34:20;;;;;;;4.72;3.35;;;;;;;13.24;94.48;100900.25;5087993;28;20032;-78
2022/10/23 08:36:46;;;;;;;6.55;3.53;;;;;;;13.29;94.68;100907.03;5082891;28;20042;-78
2022/10/23 08:39:11;;;;;;;7.07;3.40;;;;;;;13.33;94.78;100903.41;5084082;28;20067;-77
2022/10/23 08:41:42;;;;;;;5.65;3.33;;;;;;;13.38;94.55;100900.63;5084309;28;20136;-78
2022/10/23 08:44:19;;;;;;;6.72;3.60;;;;;;;13.42;94.36;100889.19;5080506;28;20063;-78
2022/10/23 08:46:49;;;;;;;6.18;3.60;;;;;;;13.44;93.87;100895.22;5084804;28;20033;-77
2022/10/23 08:49:30;;;;;;;6.53;3.80;;;;;;;13.46;93.87;100892.53;5081686;28;20081;-77
2022/10/23 08:51:59;;;;;;;7.65;3.50;;;;;;;13.45;93.50;100881.22;5084150;28;20063;-77
2022/10/23 08:54:47;;;;;;;7.55;3.53;;;;;;;13.47;93.54;100878.53;5079946;28;20035;-78
2022/10/23 08:57:15;;;;;;;5.15;3.15;;;;;;;13.47;93.67;100884.66;5080563;28;20043;-78
2022/10/23 08:59:59;;;;;;;6.68;3.50;;;;;;;13.50;93.72;100879.28;5078725;28;20035;-78
2022/10/23 09:02:29;;;;;;;6.97;3.33;;;;;;;13.51;93.34;100886.22;5081464;28;20039;-78
2022/10/23 09:04:57;;;;;;;6.25;3.28;;;;;;;13.54;93.49;100873.94;5080846;28;20024;-78
2022/10/23 09:07:47;;;;;;;7.78;3.33;;;;;;;13.57;93.29;100869.47;5082271;28;20475;-78
2022/10/23 09:10:33;;;;;;;10.25;3.15;;;;;;;13.62;93.07;100872.75;5068444;28;20542;-78
2022/10/23 09:13:20;;;;;;;5.55;2.80;;;;;;;13.63;92.76;100857.91;5082122;28;20056;-78
2022/10/23 09:15:51;;;;;;;6.43;3.10;;;;;;;13.64;92.51;100854.41;5082878;28;20031;-78
2022/10/23 09:18:16;;;;;;;5.82;3.22;;;;;;;13.66;92.62;100852.59;5080422;28;20505;-77
2022/10/23 09:20:44;;;;;;;6.20;2.83;;;;;;;13.67;92.26;100849.03;5085120;28;20024;-78
2022/10/23 09:23:18;;;;;;;4.35;2.85;;;;;;;13.69;92.37;100844.59;5083532;28;20055;-78
2022/10/23 09:25:46;;;;;;;4.70;3.17;;;;;;;13.71;92.28;100845.41;5083702;28;20028;-78
2022/10/23 09:28:21;;;;;;;5.95;3.25;;;;;;;13.75;92.43;100839.13;5077454;28;20550;-78
2022/10/23 09:30:47;;;;;;;5.82;3.13;;;;;;;13.80;92.48;100834.59;5083132;28;20016;-78
2022/10/23 09:33:17;;;;;;;6.65;3.08;;;;;;;13.84;92.19;100824.84;5083240;28;20042;-77
2022/10/23 09:35:58;;;;;;;5.43;3.00;;;;;;;13.88;91.67;100834.28;5082309;28;20036;-77
2022/10/23 09:38:49;;;;;;;7.53;3.38;;;;;;;13.91;91.97;100830.69;5082640;28;20076;-78
2022/10/23 09:41:28;;;;;;;5.28;3.05;;;;;;;13.92;91.51;100825.38;5083018;28;20028;-78
2022/10/23 09:44:05;;;;;;;5.47;2.80;;;;;;;13.94;91.69;100827.94;5080100;28;20036;-78
2022/10/23 09:46:39;;;;;;;5.15;3.03;;;;;;;13.95;91.16;100813.97;5084554;28;20058;-77
2022/10/23 09:49:06;;;;;;;4.45;3.08;;;;;;;13.96;91.21;100819.13;5076339;28;20056;-77
2022/10/23 09:51:32;;;;;;;5.10;3.05;;;;;;;13.98;91.37;100806.00;5081554;28;20026;-78
2022/10/23 09:53:59;;;;;;;7.95;3.15;;;;;;;14.01;91.09;100803.22;5082611;28;20035;-78
2022/10/23 09:56:30;;;;;;;6.18;2.92;;;;;;;14.02;91.28;100802.31;5086776;28;20066;-77
2022/10/23 09:58:58;;;;;;;5.63;2.80;;;;;;;14.05;91.41;100793.53;5082991;28;20067;-77
2022/10/23 10:01:29;;;;;;;4.40;2.80;;;;;;;14.07;91.19;100802.16;5084068;28;20020;-77
2022/10/23 10:03:55;;;;;;;4.57;2.70;;;;;;;14.09;90.97;100803.78;5082348;28;20024;-77
2022/10/23 10:06:30;;;;;;;5.22;2.72;;;;;;;14.10;90.91;100796.78;5078010;28;20036;-78
2022/10/23 10:08:58;;;;;;;6.95;2.97;;;;;;;14.11;90.69;100794.13;5081562;28;20186;-78
2022/10/23 10:11:32;;;;;;;5.90;3.33;;;;;;;14.15;90.60;100788.75;5081186;28;20049;-78
2022/10/23 10:14:04;;;;;;;6.25;3.08;;;;;;;14.20;90.63;100773.69;5078141;28;20553;-77
2022/10/23 10:16:40;;;;;;;;;;;;;;;14.25;91.01;100774.38;5081235;28;20110;-77
2022/10/23 10:19:14;;;;;;;5.70;2.70;;;;;;;14.26;90.81;100769.06;5086871;28;19963;-78
2022/10/23 10:22:07;;;;;;;6.22;2.97;;;;;;;14.27;90.61;100759.44;5082040;28;20024;-78
2022/10/23 10:25:02;;;;;;;4.68;3.22;;;;;;;14.30;90.73;100748.84;5077234;28;20045;-78
2022/10/23 10:27:46;;;;;;;4.07;2.63;;;;;;;14.34;90.57;100744.34;5075926;28;20031;-77
2022/10/23 10:30:19;;;;;;;4.85;3.05;;;;;;;14.34;90.65;100734.72;5084128;28;20497;-78
2022/10/23 10:33:07;;;;;;;3.67;2.90;;;;;;;14.37;90.40;100728.50;5077174;28;20040;-78
2022/10/23 10:36:00;;;;;;;6.28;3.35;;;;;;;14.40;90.20;100723.16;5083098;28;20028;-78
2022/10/23 10:38:41;;;;;;;4.13;2.80;;;;;;;14.41;90.17;100730.91;5084930;28;20097;-78
2022/10/23 10:41:32;;;;;;;5.25;3.10;;;;;;;14.46;90.21;100728.09;5083525;28;20031;-78
2022/10/23 10:44:17;;;;;;;6.93;2.92;;;;;;;14.49;89.77;100727.97;5084305;28;20050;-78
2022/10/23 10:47:04;;;;;;;10.30;3.17;;;;;;;14.54;89.66;100735.59;5078432;28;20166;-77
2022/10/23 10:49:37;;;;;;;8.05;3.50;;;;;;;14.60;89.89;100742.38;5071546;28;20028;-78
2022/10/23 10:52:29;;;;;;;8.13;4.07;;;;;;;14.66;89.19;100724.59;5080532;28;20036;-78
2022/10/23 10:55:21;;;;;;;8.07;3.67;;;;;;;14.74;89.40;100715.56;5079761;28;20471;-78
2022/10/23 10:57:57;;;;;;;7.15;3.28;;;;;;;14.81;89.06;100722.25;5071544;28;20032;-78
2022/10/23 11:00:23;;;;;;;6.50;3.83;;;;;;;14.87;89.04;100714.09;5080929;28;20769;-78
2022/10/23 11:02:56;;;;;;;7.82;3.63;;;;;;;14.95;88.80;100706.75;5076624;28;20035;-78
2022/10/23 11:05:30;;;;;;;7.38;3.30;;;;;;;15.05;88.92;100693.19;5078509;28;20024;-78
2022/10/23 11:08:13;;;;;;;5.65;3.53;;;;;;;15.13;88.66;100696.31;5076408;28;20027;-78
2022/10/23 11:10:44;;;;;;;5.97;3.40;;;;;;;15.21;87.93;100699.41;5080216;28;20391;-78
2022/10/23 11:13:25;;;;;;;5.30;3.37;;;;;;;15.27;87.59;100691.28;5080223;28;20100;-78
2022/10/23 11:15:54;;;;;;;9.05;4.22;;;;;;;15.36;87.77;100676.03;5068442;28;20282;-78
2022/10/23 11:18:25;;;;;;;5.25;3.15;;;;;;;15.42;87.48;100671.34;5071662;28;20024;-78
2022/10/23 11:21:06;;;;;;;4.75;3.20;;;;;;;15.51;87.56;100679.66;5072619;28;20149;-78
2022/10/23 11:24:00;;;;;;;7.50;3.72;;;;;;;15.57;86.71;100664.47;5071753;28;20054;-78
2022/10/23 11:27:00;;;;;;;6.43;3.42;;;;;;;15.58;86.05;100660.94;5065216;28;21058;-78
2022/10/23 11:29:49;;;;;;;5.72;2.78;;;;;;;15.64;85.96;100659.75;5079770;28;20034;-78
2022/10/23 11:32:47;;;;;;;5.38;3.00;;;;;;;15.70;85.90;100667.34;5074718;28;20024;-78
2022/10/23 11:35:30;;;;;;;4.90;2.67;;;;;;;15.77;85.81;100657.38;5077039;28;20028;-78
2022/10/23 11:37:58;;;;;;;5.57;2.70;;;;;;;15.85;85.72;100662.25;5079759;28;20031;-77